sensor_id;sensor_type;location;lat;lon;timestamp;pressure;altitude;pressure_sealevel;temperature
16956;BMP180;8594;52.052;8.354;2023-04-09T00:00:21;101659.00;;;9.70
16956;BMP180;8594;52.052;8.354;2023-04-09T00:02:48;101662.00;;;10.20
16956;BMP180;8594;52.052;8.354;2023-04-09T00:05:15;101652.00;;;10.30
16956;BMP180;8594;52.052;8.354;2023-04-09T00:07:43;101655.00;;;10.20
16956;BMP180;8594;52.052;8.354;2023-04-09T00:10:10;101657.00;;;10.10
16956;BMP180;8594;52.052;8.354;2023-04-09T00:12:37;101650.00;;;10.00
16956;BMP180;8594;52.052;8.354;2023-04-09T00:15:05;101644.00;;;9.60
16956;BMP180;8594;52.052;8.354;2023-04-09T00:17:32;101640.00;;;9.40
16956;BMP180;8594;52.052;8.354;2023-04-09T00:19:59;101648.00;;;9.50
16956;BMP180;8594;52.052;8.354;2023-04-09T00:22:26;101644.00;;;9.50
16956;BMP180;8594;52.052;8.354;2023-04-09T00:24:54;101636.00;;;9.40
16956;BMP180;8594;52.052;8.354;2023-04-09T00:27:22;101631.00;;;9.50
16956;BMP180;8594;52.052;8.354;2023-04-09T00:29:48;101640.00;;;9.00
16956;BMP180;8594;52.052;8.354;2023-04-09T00:32:15;101634.00;;;9.20
16956;BMP180;8594;52.052;8.354;2023-04-09T00:34:42;101630.00;;;9.30
16956;BMP180;8594;52.052;8.354;2023-04-09T00:37:09;101627.00;;;9.30
16956;BMP180;8594;52.052;8.354;2023-04-09T00:39:36;101635.00;;;9.20
16956;BMP180;8594;52.052;8.354;2023-04-09T00:42:04;101632.00;;;9.10
16956;BMP180;8594;52.052;8.354;2023-04-09T00:44:31;101623.00;;;8.90
16956;BMP180;8594;52.052;8.354;2023-04-09T00:46:58;101630.00;;;8.80
16956;BMP180;8594;52.052;8.354;2023-04-09T00:49:26;101634.00;;;9.00
16956;BMP180;8594;52.052;8.354;2023-04-09T00:51:53;101631.00;;;9.20
16956;BMP180;8594;52.052;8.354;2023-04-09T00:54:20;101629.00;;;9.40
16956;BMP180;8594;52.052;8.354;2023-04-09T00:56:47;101630.00;;;9.50
16956;BMP180;8594;52.052;8.354;2023-04-09T00:59:15;101619.00;;;9.50
16956;BMP180;8594;52.052;8.354;2023-04-09T01:01:42;101619.00;;;9.40
16956;BMP180;8594;52.052;8.354;2023-04-09T01:04:09;101621.00;;;9.50
16956;BMP180;8594;52.052;8.354;2023-04-09T01:06:51;101624.00;;;9.60
16956;BMP180;8594;52.052;8.354;2023-04-09T01:09:27;101614.00;;;9.60
16956;BMP180;8594;52.052;8.354;2023-04-09T01:12:06;101616.00;;;9.70
16956;BMP180;8594;52.052;8.354;2023-04-09T01:14:44;101618.00;;;9.70
16956;BMP180;8594;52.052;8.354;2023-04-09T01:17:17;101620.00;;;9.60
16956;BMP180;8594;52.052;8.354;2023-04-09T01:19:56;101617.00;;;9.50
16956;BMP180;8594;52.052;8.354;2023-04-09T01:22:39;101612.00;;;9.70
16956;BMP180;8594;52.052;8.354;2023-04-09T01:25:25;101607.00;;;9.70
16956;BMP180;8594;52.052;8.354;2023-04-09T01:28:13;101612.00;;;9.50
16956;BMP180;8594;52.052;8.354;2023-04-09T01:30:47;101609.00;;;9.40
16956;BMP180;8594;52.052;8.354;2023-04-09T01:33:17;101609.00;;;9.70
16956;BMP180;8594;52.052;8.354;2023-04-09T01:35:47;101616.00;;;9.60
16956;BMP180;8594;52.052;8.354;2023-04-09T01:38:17;101618.00;;;9.80
16956;BMP180;8594;52.052;8.354;2023-04-09T01:40:45;101612.00;;;9.70
16956;BMP180;8594;52.052;8.354;2023-04-09T01:43:14;101618.00;;;9.80
16956;BMP180;8594;52.052;8.354;2023-04-09T01:45:44;101625.00;;;9.70
16956;BMP180;8594;52.052;8.354;2023-04-09T01:48:12;101627.00;;;9.40
16956;BMP180;8594;52.052;8.354;2023-04-09T01:50:40;101619.00;;;9.30
16956;BMP180;8594;52.052;8.354;2023-04-09T01:53:07;101617.00;;;9.10
16956;BMP180;8594;52.052;8.354;2023-04-09T01:55:34;101622.00;;;9.10
16956;BMP180;8594;52.052;8.354;2023-04-09T01:58:01;101624.00;;;9.30
16956;BMP180;8594;52.052;8.354;2023-04-09T02:00:37;101621.00;;;9.00
16956;BMP180;8594;52.052;8.354;2023-04-09T02:03:07;101616.00;;;8.80
16956;BMP180;8594;52.052;8.354;2023-04-09T02:05:40;101621.00;;;8.50
16956;BMP180;8594;52.052;8.354;2023-04-09T02:08:15;101625.00;;;8.60
16956;BMP180;8594;52.052;8.354;2023-04-09T02:10:50;101617.00;;;8.80
16956;BMP180;8594;52.052;8.354;2023-04-09T02:13:22;101620.00;;;9.10
16956;BMP180;8594;52.052;8.354;2023-04-09T02:15:53;101614.00;;;9.70
16956;BMP180;8594;52.052;8.354;2023-04-09T02:18:22;101603.00;;;9.80
16956;BMP180;8594;52.052;8.354;2023-04-09T02:20:49;101606.00;;;9.90
16956;BMP180;8594;52.052;8.354;2023-04-09T02:23:16;101613.00;;;10.00
16956;BMP180;8594;52.052;8.354;2023-04-09T02:25:43;101613.00;;;10.00
16956;BMP180;8594;52.052;8.354;2023-04-09T02:28:10;101617.00;;;9.80
16956;BMP180;8594;52.052;8.354;2023-04-09T02:30:37;101601.00;;;9.80
16956;BMP180;8594;52.052;8.354;2023-04-09T02:33:05;101608.00;;;9.70
16956;BMP180;8594;52.052;8.354;2023-04-09T02:35:32;101598.00;;;9.70
16956;BMP180;8594;52.052;8.354;2023-04-09T02:37:59;101600.00;;;9.50
16956;BMP180;8594;52.052;8.354;2023-04-09T02:40:26;101606.00;;;9.50
16956;BMP180;8594;52.052;8.354;2023-04-09T02:42:53;101596.00;;;9.30
16956;BMP180;8594;52.052;8.354;2023-04-09T02:45:20;101605.00;;;9.60
16956;BMP180;8594;52.052;8.354;2023-04-09T02:47:47;101603.00;;;9.70
16956;BMP180;8594;52.052;8.354;2023-04-09T02:50:16;101592.00;;;9.70
16956;BMP180;8594;52.052;8.354;2023-04-09T02:52:45;101592.00;;;9.70
16956;BMP180;8594;52.052;8.354;2023-04-09T02:55:12;101592.00;;;9.70
16956;BMP180;8594;52.052;8.354;2023-04-09T02:57:39;101596.00;;;9.70
16956;BMP180;8594;52.052;8.354;2023-04-09T03:00:08;101589.00;;;9.50
16956;BMP180;8594;52.052;8.354;2023-04-09T03:02:35;101587.00;;;9.70
16956;BMP180;8594;52.052;8.354;2023-04-09T03:05:02;101592.00;;;9.70
16956;BMP180;8594;52.052;8.354;2023-04-09T03:07:30;101583.00;;;9.70
16956;BMP180;8594;52.052;8.354;2023-04-09T03:09:57;101584.00;;;9.70
16956;BMP180;8594;52.052;8.354;2023-04-09T03:12:24;101587.00;;;9.60
16956;BMP180;8594;52.052;8.354;2023-04-09T03:14:51;101578.00;;;9.60
16956;BMP180;8594;52.052;8.354;2023-04-09T03:17:18;101580.00;;;9.60
16956;BMP180;8594;52.052;8.354;2023-04-09T03:19:44;101574.00;;;9.40
16956;BMP180;8594;52.052;8.354;2023-04-09T03:22:11;101577.00;;;9.40
16956;BMP180;8594;52.052;8.354;2023-04-09T03:24:39;101575.00;;;9.40
16956;BMP180;8594;52.052;8.354;2023-04-09T03:27:06;101572.00;;;9.10
16956;BMP180;8594;52.052;8.354;2023-04-09T03:29:33;101572.00;;;9.10
16956;BMP180;8594;52.052;8.354;2023-04-09T03:32:00;101574.00;;;9.20
16956;BMP180;8594;52.052;8.354;2023-04-09T03:34:26;101568.00;;;9.20
16956;BMP180;8594;52.052;8.354;2023-04-09T03:36:53;101564.00;;;9.20
16956;BMP180;8594;52.052;8.354;2023-04-09T03:39:20;101561.00;;;9.00
16956;BMP180;8594;52.052;8.354;2023-04-09T03:41:48;101569.00;;;9.00
16956;BMP180;8594;52.052;8.354;2023-04-09T03:44:15;101562.00;;;9.20
16956;BMP180;8594;52.052;8.354;2023-04-09T03:46:42;101559.00;;;9.10
16956;BMP180;8594;52.052;8.354;2023-04-09T03:49:09;101563.00;;;8.80
16956;BMP180;8594;52.052;8.354;2023-04-09T03:51:36;101560.00;;;8.80
16956;BMP180;8594;52.052;8.354;2023-04-09T03:54:02;101563.00;;;9.00
16956;BMP180;8594;52.052;8.354;2023-04-09T03:56:29;101565.00;;;8.90
16956;BMP180;8594;52.052;8.354;2023-04-09T03:58:57;101568.00;;;8.80
16956;BMP180;8594;52.052;8.354;2023-04-09T04:01:24;101566.00;;;8.50
16956;BMP180;8594;52.052;8.354;2023-04-09T04:03:51;101565.00;;;8.60
16956;BMP180;8594;52.052;8.354;2023-04-09T04:06:18;101564.00;;;8.50
16956;BMP180;8594;52.052;8.354;2023-04-09T04:08:45;101565.00;;;8.50
16956;BMP180;8594;52.052;8.354;2023-04-09T04:11:12;101564.00;;;8.50
16956;BMP180;8594;52.052;8.354;2023-04-09T04:13:39;101566.00;;;8.40
16956;BMP180;8594;52.052;8.354;2023-04-09T04:16:08;101565.00;;;8.30
16956;BMP180;8594;52.052;8.354;2023-04-09T04:18:36;101567.00;;;8.40
16956;BMP180;8594;52.052;8.354;2023-04-09T04:21:03;101565.00;;;8.50
16956;BMP180;8594;52.052;8.354;2023-04-09T04:23:30;101566.00;;;8.40
16956;BMP180;8594;52.052;8.354;2023-04-09T04:25:57;101562.00;;;8.50
16956;BMP180;8594;52.052;8.354;2023-04-09T04:28:23;101565.00;;;8.60
16956;BMP180;8594;52.052;8.354;2023-04-09T04:30:50;101568.00;;;8.40
16956;BMP180;8594;52.052;8.354;2023-04-09T04:33:18;101570.00;;;8.30
16956;BMP180;8594;52.052;8.354;2023-04-09T04:35:45;101568.00;;;8.40
16956;BMP180;8594;52.052;8.354;2023-04-09T04:38:12;101565.00;;;8.40
16956;BMP180;8594;52.052;8.354;2023-04-09T04:40:39;101571.00;;;8.70
16956;BMP180;8594;52.052;8.354;2023-04-09T04:43:06;101571.00;;;8.60
16956;BMP180;8594;52.052;8.354;2023-04-09T04:45:32;101575.00;;;9.00
16956;BMP180;8594;52.052;8.354;2023-04-09T04:47:59;101568.00;;;9.20
16956;BMP180;8594;52.052;8.354;2023-04-09T04:50:28;101569.00;;;9.20
16956;BMP180;8594;52.052;8.354;2023-04-09T04:52:55;101575.00;;;9.10
16956;BMP180;8594;52.052;8.354;2023-04-09T04:55:22;101567.00;;;8.80
16956;BMP180;8594;52.052;8.354;2023-04-09T04:57:49;101571.00;;;8.60
16956;BMP180;8594;52.052;8.354;2023-04-09T05:00:17;101567.00;;;8.40
16956;BMP180;8594;52.052;8.354;2023-04-09T05:02:44;101564.00;;;8.50
16956;BMP180;8594;52.052;8.354;2023-04-09T05:05:11;101567.00;;;8.50
16956;BMP180;8594;52.052;8.354;2023-04-09T05:07:39;101572.00;;;8.40
16956;BMP180;8594;52.052;8.354;2023-04-09T05:10:08;101566.00;;;8.50
16956;BMP180;8594;52.052;8.354;2023-04-09T05:12:35;101577.00;;;8.50
16956;BMP180;8594;52.052;8.354;2023-04-09T05:15:02;101568.00;;;8.60
16956;BMP180;8594;52.052;8.354;2023-04-09T05:17:29;101562.00;;;8.60
16956;BMP180;8594;52.052;8.354;2023-04-09T05:19:55;101565.00;;;8.60
16956;BMP180;8594;52.052;8.354;2023-04-09T05:22:23;101565.00;;;8.80
16956;BMP180;8594;52.052;8.354;2023-04-09T05:24:51;101557.00;;;8.30
16956;BMP180;8594;52.052;8.354;2023-04-09T05:27:18;101560.00;;;8.60
16956;BMP180;8594;52.052;8.354;2023-04-09T05:29:46;101563.00;;;8.90
16956;BMP180;8594;52.052;8.354;2023-04-09T05:32:13;101565.00;;;8.80
16956;BMP180;8594;52.052;8.354;2023-04-09T05:34:40;101555.00;;;9.30
16956;BMP180;8594;52.052;8.354;2023-04-09T05:37:07;101552.00;;;9.60
16956;BMP180;8594;52.052;8.354;2023-04-09T05:39:34;101562.00;;;10.40
16956;BMP180;8594;52.052;8.354;2023-04-09T05:42:02;101559.00;;;10.30
16956;BMP180;8594;52.052;8.354;2023-04-09T05:44:29;101567.00;;;10.70
16956;BMP180;8594;52.052;8.354;2023-04-09T05:46:56;101569.00;;;11.00
16956;BMP180;8594;52.052;8.354;2023-04-09T05:49:23;101565.00;;;10.70
16956;BMP180;8594;52.052;8.354;2023-04-09T05:51:50;101568.00;;;10.70
16956;BMP180;8594;52.052;8.354;2023-04-09T05:54:17;101564.00;;;11.20
16956;BMP180;8594;52.052;8.354;2023-04-09T05:56:44;101570.00;;;11.50
16956;BMP180;8594;52.052;8.354;2023-04-09T05:59:12;101568.00;;;11.70
16956;BMP180;8594;52.052;8.354;2023-04-09T06:01:39;101577.00;;;11.40
16956;BMP180;8594;52.052;8.354;2023-04-09T06:04:06;101575.00;;;11.00
16956;BMP180;8594;52.052;8.354;2023-04-09T06:06:33;101579.00;;;11.50
16956;BMP180;8594;52.052;8.354;2023-04-09T06:09:00;101576.00;;;11.60
16956;BMP180;8594;52.052;8.354;2023-04-09T06:11:27;101580.00;;;11.50
16956;BMP180;8594;52.052;8.354;2023-04-09T06:13:53;101579.00;;;11.50
16956;BMP180;8594;52.052;8.354;2023-04-09T06:16:21;101582.00;;;11.50
16956;BMP180;8594;52.052;8.354;2023-04-09T06:18:48;101586.00;;;12.00
16956;BMP180;8594;52.052;8.354;2023-04-09T06:21:19;101592.00;;;11.70
16956;BMP180;8594;52.052;8.354;2023-04-09T06:23:46;101587.00;;;11.60
16956;BMP180;8594;52.052;8.354;2023-04-09T06:26:12;101590.00;;;12.20
16956;BMP180;8594;52.052;8.354;2023-04-09T06:28:39;101591.00;;;12.10
16956;BMP180;8594;52.052;8.354;2023-04-09T06:31:06;101596.00;;;11.80
16956;BMP180;8594;52.052;8.354;2023-04-09T06:33:35;101596.00;;;11.80
16956;BMP180;8594;52.052;8.354;2023-04-09T06:36:01;101596.00;;;11.60
16956;BMP180;8594;52.052;8.354;2023-04-09T06:38:28;101595.00;;;11.10
16956;BMP180;8594;52.052;8.354;2023-04-09T06:40:55;101600.00;;;11.40
16956;BMP180;8594;52.052;8.354;2023-04-09T06:43:22;101597.00;;;11.30
16956;BMP180;8594;52.052;8.354;2023-04-09T06:45:50;101594.00;;;12.00
16956;BMP180;8594;52.052;8.354;2023-04-09T06:48:16;101595.00;;;13.10
16956;BMP180;8594;52.052;8.354;2023-04-09T06:50:45;101613.00;;;13.30
16956;BMP180;8594;52.052;8.354;2023-04-09T06:53:12;101600.00;;;13.00
16956;BMP180;8594;52.052;8.354;2023-04-09T06:55:38;101612.00;;;13.70
16956;BMP180;8594;52.052;8.354;2023-04-09T06:58:05;101603.00;;;13.40
16956;BMP180;8594;52.052;8.354;2023-04-09T07:00:32;101593.00;;;13.60
16956;BMP180;8594;52.052;8.354;2023-04-09T07:02:59;101598.00;;;13.70
16956;BMP180;8594;52.052;8.354;2023-04-09T07:05:26;101604.00;;;14.60
16956;BMP180;8594;52.052;8.354;2023-04-09T07:07:54;101600.00;;;14.10
16956;BMP180;8594;52.052;8.354;2023-04-09T07:10:21;101602.00;;;15.50
16956;BMP180;8594;52.052;8.354;2023-04-09T07:12:48;101600.00;;;15.00
16956;BMP180;8594;52.052;8.354;2023-04-09T07:15:14;101601.00;;;15.10
16956;BMP180;8594;52.052;8.354;2023-04-09T07:17:41;101615.00;;;15.50
16956;BMP180;8594;52.052;8.354;2023-04-09T07:20:09;101612.00;;;16.10
16956;BMP180;8594;52.052;8.354;2023-04-09T07:22:36;101613.00;;;16.80
16956;BMP180;8594;52.052;8.354;2023-04-09T07:25:06;101608.00;;;15.40
16956;BMP180;8594;52.052;8.354;2023-04-09T07:27:34;101612.00;;;16.30
16956;BMP180;8594;52.052;8.354;2023-04-09T07:30:01;101619.00;;;16.60
16956;BMP180;8594;52.052;8.354;2023-04-09T07:32:28;101624.00;;;15.70
16956;BMP180;8594;52.052;8.354;2023-04-09T07:34:55;101627.00;;;16.70
16956;BMP180;8594;52.052;8.354;2023-04-09T07:37:24;101634.00;;;17.50
16956;BMP180;8594;52.052;8.354;2023-04-09T07:39:51;101634.00;;;17.10
16956;BMP180;8594;52.052;8.354;2023-04-09T07:42:20;101625.00;;;17.70
16956;BMP180;8594;52.052;8.354;2023-04-09T07:44:47;101629.00;;;17.70
16956;BMP180;8594;52.052;8.354;2023-04-09T07:47:14;101633.00;;;17.30
16956;BMP180;8594;52.052;8.354;2023-04-09T07:49:41;101635.00;;;17.30
16956;BMP180;8594;52.052;8.354;2023-04-09T07:52:08;101634.00;;;18.30
16956;BMP180;8594;52.052;8.354;2023-04-09T07:54:35;101634.00;;;18.20
16956;BMP180;8594;52.052;8.354;2023-04-09T07:57:02;101640.00;;;18.40
16956;BMP180;8594;52.052;8.354;2023-04-09T07:59:30;101650.00;;;18.80
16956;BMP180;8594;52.052;8.354;2023-04-09T08:01:57;101645.00;;;18.30
16956;BMP180;8594;52.052;8.354;2023-04-09T08:04:24;101637.00;;;18.00
16956;BMP180;8594;52.052;8.354;2023-04-09T08:06:51;101652.00;;;17.90
16956;BMP180;8594;52.052;8.354;2023-04-09T08:09:18;101645.00;;;18.20
16956;BMP180;8594;52.052;8.354;2023-04-09T08:11:46;101636.00;;;18.30
16956;BMP180;8594;52.052;8.354;2023-04-09T08:14:15;101638.00;;;18.20
16956;BMP180;8594;52.052;8.354;2023-04-09T08:16:46;101649.00;;;18.10
16956;BMP180;8594;52.052;8.354;2023-04-09T08:19:14;101643.00;;;18.70
16956;BMP180;8594;52.052;8.354;2023-04-09T08:21:42;101649.00;;;18.60
16956;BMP180;8594;52.052;8.354;2023-04-09T08:24:10;101653.00;;;18.90
16956;BMP180;8594;52.052;8.354;2023-04-09T08:26:38;101654.00;;;18.30
16956;BMP180;8594;52.052;8.354;2023-04-09T08:29:07;101652.00;;;18.30
16956;BMP180;8594;52.052;8.354;2023-04-09T08:31:34;101660.00;;;19.10
16956;BMP180;8594;52.052;8.354;2023-04-09T08:34:03;101656.00;;;18.60
16956;BMP180;8594;52.052;8.354;2023-04-09T08:36:30;101649.00;;;18.90
16956;BMP180;8594;52.052;8.354;2023-04-09T08:38:59;101657.00;;;19.30
16956;BMP180;8594;52.052;8.354;2023-04-09T08:41:28;101648.00;;;18.80
16956;BMP180;8594;52.052;8.354;2023-04-09T08:43:57;101657.00;;;18.90
16956;BMP180;8594;52.052;8.354;2023-04-09T08:46:24;101650.00;;;19.60
16956;BMP180;8594;52.052;8.354;2023-04-09T08:48:51;101658.00;;;19.90
16956;BMP180;8594;52.052;8.354;2023-04-09T08:51:22;101658.00;;;19.40
16956;BMP180;8594;52.052;8.354;2023-04-09T08:53:56;101652.00;;;19.60
16956;BMP180;8594;52.052;8.354;2023-04-09T08:56:23;101654.00;;;19.50
16956;BMP180;8594;52.052;8.354;2023-04-09T08:58:50;101650.00;;;19.30
16956;BMP180;8594;52.052;8.354;2023-04-09T09:01:20;101653.00;;;20.20
16956;BMP180;8594;52.052;8.354;2023-04-09T09:03:58;101652.00;;;20.30
16956;BMP180;8594;52.052;8.354;2023-04-09T09:06:29;101645.00;;;18.30
16956;BMP180;8594;52.052;8.354;2023-04-09T09:09:03;101649.00;;;19.30
16956;BMP180;8594;52.052;8.354;2023-04-09T09:11:31;101651.00;;;19.20
16956;BMP180;8594;52.052;8.354;2023-04-09T09:14:01;101650.00;;;19.70
16956;BMP180;8594;52.052;8.354;2023-04-09T09:16:28;101647.00;;;19.30
16956;BMP180;8594;52.052;8.354;2023-04-09T09:18:56;101645.00;;;19.40
16956;BMP180;8594;52.052;8.354;2023-04-09T09:21:25;101645.00;;;19.40
16956;BMP180;8594;52.052;8.354;2023-04-09T09:23:53;101652.00;;;19.70
16956;BMP180;8594;52.052;8.354;2023-04-09T09:26:22;101644.00;;;19.60
16956;BMP180;8594;52.052;8.354;2023-04-09T09:28:50;101641.00;;;19.80
16956;BMP180;8594;52.052;8.354;2023-04-09T09:31:20;101638.00;;;19.80
16956;BMP180;8594;52.052;8.354;2023-04-09T09:33:48;101632.00;;;20.00
16956;BMP180;8594;52.052;8.354;2023-04-09T09:36:30;101642.00;;;19.70
16956;BMP180;8594;52.052;8.354;2023-04-09T09:38:59;101627.00;;;19.90
16956;BMP180;8594;52.052;8.354;2023-04-09T09:41:28;101637.00;;;20.20
16956;BMP180;8594;52.052;8.354;2023-04-09T09:43:56;101636.00;;;19.70
16956;BMP180;8594;52.052;8.354;2023-04-09T09:46:24;101634.00;;;19.80
16956;BMP180;8594;52.052;8.354;2023-04-09T09:48:55;101626.00;;;20.30
16956;BMP180;8594;52.052;8.354;2023-04-09T09:51:25;101629.00;;;20.40
16956;BMP180;8594;52.052;8.354;2023-04-09T09:53:58;101625.00;;;20.50
16956;BMP180;8594;52.052;8.354;2023-04-09T09:56:30;101628.00;;;20.20
16956;BMP180;8594;52.052;8.354;2023-04-09T09:59:06;101629.00;;;20.50
16956;BMP180;8594;52.052;8.354;2023-04-09T10:01:37;101627.00;;;20.40
16956;BMP180;8594;52.052;8.354;2023-04-09T10:04:08;101624.00;;;20.30
16956;BMP180;8594;52.052;8.354;2023-04-09T10:06:39;101623.00;;;20.00
16956;BMP180;8594;52.052;8.354;2023-04-09T10:09:10;101633.00;;;19.70
16956;BMP180;8594;52.052;8.354;2023-04-09T10:11:39;101631.00;;;20.00
16956;BMP180;8594;52.052;8.354;2023-04-09T10:14:08;101632.00;;;19.30
16956;BMP180;8594;52.052;8.354;2023-04-09T10:16:36;101632.00;;;18.90
16956;BMP180;8594;52.052;8.354;2023-04-09T10:19:04;101626.00;;;18.10
16956;BMP180;8594;52.052;8.354;2023-04-09T10:21:40;101619.00;;;17.60
16956;BMP180;8594;52.052;8.354;2023-04-09T10:24:10;101622.00;;;18.00
16956;BMP180;8594;52.052;8.354;2023-04-09T10:26:40;101619.00;;;18.10
16956;BMP180;8594;52.052;8.354;2023-04-09T10:29:09;101612.00;;;18.20
16956;BMP180;8594;52.052;8.354;2023-04-09T10:31:52;101614.00;;;18.30
16956;BMP180;8594;52.052;8.354;2023-04-09T10:34:22;101613.00;;;18.20
16956;BMP180;8594;52.052;8.354;2023-04-09T10:36:52;101602.00;;;18.00
16956;BMP180;8594;52.052;8.354;2023-04-09T10:39:25;101601.00;;;19.00
16956;BMP180;8594;52.052;8.354;2023-04-09T10:41:53;101607.00;;;18.90
16956;BMP180;8594;52.052;8.354;2023-04-09T10:44:22;101599.00;;;18.20
16956;BMP180;8594;52.052;8.354;2023-04-09T10:46:52;101606.00;;;18.80
16956;BMP180;8594;52.052;8.354;2023-04-09T10:49:21;101600.00;;;18.90
16956;BMP180;8594;52.052;8.354;2023-04-09T10:51:51;101602.00;;;18.70
16956;BMP180;8594;52.052;8.354;2023-04-09T10:54:44;101609.00;;;17.70
16956;BMP180;8594;52.052;8.354;2023-04-09T10:57:19;101603.00;;;17.30
16956;BMP180;8594;52.052;8.354;2023-04-09T10:59:49;101598.00;;;17.30
16956;BMP180;8594;52.052;8.354;2023-04-09T11:02:58;101590.00;;;16.80
16956;BMP180;8594;52.052;8.354;2023-04-09T11:05:33;101602.00;;;17.60
16956;BMP180;8594;52.052;8.354;2023-04-09T11:08:06;101591.00;;;17.90
16956;BMP180;8594;52.052;8.354;2023-04-09T11:10:36;101585.00;;;18.50
16956;BMP180;8594;52.052;8.354;2023-04-09T11:13:04;101589.00;;;18.20
16956;BMP180;8594;52.052;8.354;2023-04-09T11:15:34;101580.00;;;18.10
16956;BMP180;8594;52.052;8.354;2023-04-09T11:18:01;101580.00;;;18.00
16956;BMP180;8594;52.052;8.354;2023-04-09T11:20:29;101586.00;;;18.60
16956;BMP180;8594;52.052;8.354;2023-04-09T11:22:58;101585.00;;;17.30
16956;BMP180;8594;52.052;8.354;2023-04-09T11:25:29;101575.00;;;17.50
16956;BMP180;8594;52.052;8.354;2023-04-09T11:27:58;101569.00;;;17.60
16956;BMP180;8594;52.052;8.354;2023-04-09T11:30:25;101575.00;;;18.10
16956;BMP180;8594;52.052;8.354;2023-04-09T11:32:52;101575.00;;;17.60
16956;BMP180;8594;52.052;8.354;2023-04-09T11:35:21;101573.00;;;17.80
16956;BMP180;8594;52.052;8.354;2023-04-09T11:37:49;101579.00;;;17.80
16956;BMP180;8594;52.052;8.354;2023-04-09T11:40:19;101566.00;;;17.40
16956;BMP180;8594;52.052;8.354;2023-04-09T11:42:49;101569.00;;;17.60
16956;BMP180;8594;52.052;8.354;2023-04-09T11:45:19;101561.00;;;17.50
16956;BMP180;8594;52.052;8.354;2023-04-09T11:47:47;101575.00;;;17.30
16956;BMP180;8594;52.052;8.354;2023-04-09T11:50:15;101568.00;;;17.20
16956;BMP180;8594;52.052;8.354;2023-04-09T11:52:43;101571.00;;;17.50
16956;BMP180;8594;52.052;8.354;2023-04-09T11:55:11;101576.00;;;17.70
16956;BMP180;8594;52.052;8.354;2023-04-09T11:57:42;101564.00;;;17.30
16956;BMP180;8594;52.052;8.354;2023-04-09T12:00:12;101565.00;;;17.60
16956;BMP180;8594;52.052;8.354;2023-04-09T12:02:43;101563.00;;;17.60
16956;BMP180;8594;52.052;8.354;2023-04-09T12:05:19;101571.00;;;17.60
16956;BMP180;8594;52.052;8.354;2023-04-09T12:07:46;101569.00;;;17.80
16956;BMP180;8594;52.052;8.354;2023-04-09T12:10:12;101572.00;;;17.30
16956;BMP180;8594;52.052;8.354;2023-04-09T12:12:41;101573.00;;;17.80
16956;BMP180;8594;52.052;8.354;2023-04-09T12:15:18;101572.00;;;17.10
16956;BMP180;8594;52.052;8.354;2023-04-09T12:17:49;101567.00;;;17.50
16956;BMP180;8594;52.052;8.354;2023-04-09T12:20:28;101567.00;;;17.80
16956;BMP180;8594;52.052;8.354;2023-04-09T12:22:55;101574.00;;;17.70
16956;BMP180;8594;52.052;8.354;2023-04-09T12:25:22;101572.00;;;18.00
16956;BMP180;8594;52.052;8.354;2023-04-09T12:27:49;101575.00;;;17.80
16956;BMP180;8594;52.052;8.354;2023-04-09T12:30:16;101575.00;;;17.80
16956;BMP180;8594;52.052;8.354;2023-04-09T12:32:43;101571.00;;;17.70
16956;BMP180;8594;52.052;8.354;2023-04-09T12:35:12;101570.00;;;17.60
16956;BMP180;8594;52.052;8.354;2023-04-09T12:37:40;101566.00;;;16.90
16956;BMP180;8594;52.052;8.354;2023-04-09T12:40:08;101566.00;;;17.60
16956;BMP180;8594;52.052;8.354;2023-04-09T12:42:35;101564.00;;;17.50
16956;BMP180;8594;52.052;8.354;2023-04-09T12:45:02;101562.00;;;17.50
16956;BMP180;8594;52.052;8.354;2023-04-09T12:47:30;101566.00;;;17.20
16956;BMP180;8594;52.052;8.354;2023-04-09T12:49:56;101568.00;;;17.80
16956;BMP180;8594;52.052;8.354;2023-04-09T12:52:25;101565.00;;;18.00
16956;BMP180;8594;52.052;8.354;2023-04-09T12:54:52;101566.00;;;17.80
16956;BMP180;8594;52.052;8.354;2023-04-09T12:57:18;101565.00;;;17.90
16956;BMP180;8594;52.052;8.354;2023-04-09T12:59:45;101561.00;;;17.90
16956;BMP180;8594;52.052;8.354;2023-04-09T13:02:12;101552.00;;;17.80
16956;BMP180;8594;52.052;8.354;2023-04-09T13:04:39;101556.00;;;17.80
16956;BMP180;8594;52.052;8.354;2023-04-09T13:07:07;101547.00;;;17.40
16956;BMP180;8594;52.052;8.354;2023-04-09T13:09:36;101556.00;;;17.20
16956;BMP180;8594;52.052;8.354;2023-04-09T13:12:03;101557.00;;;17.30
16956;BMP180;8594;52.052;8.354;2023-04-09T13:14:30;101552.00;;;17.30
16956;BMP180;8594;52.052;8.354;2023-04-09T13:16:56;101550.00;;;17.20
16956;BMP180;8594;52.052;8.354;2023-04-09T13:19:23;101548.00;;;17.10
16956;BMP180;8594;52.052;8.354;2023-04-09T13:21:50;101554.00;;;17.20
16956;BMP180;8594;52.052;8.354;2023-04-09T13:24:17;101545.00;;;17.10
16956;BMP180;8594;52.052;8.354;2023-04-09T13:26:45;101552.00;;;16.50
16956;BMP180;8594;52.052;8.354;2023-04-09T13:29:12;101537.00;;;16.70
16956;BMP180;8594;52.052;8.354;2023-04-09T13:31:40;101545.00;;;16.50
16956;BMP180;8594;52.052;8.354;2023-04-09T13:34:07;101541.00;;;17.00
16956;BMP180;8594;52.052;8.354;2023-04-09T13:36:34;101542.00;;;16.90
16956;BMP180;8594;52.052;8.354;2023-04-09T13:39:00;101537.00;;;16.50
16956;BMP180;8594;52.052;8.354;2023-04-09T13:41:31;101529.00;;;16.50
16956;BMP180;8594;52.052;8.354;2023-04-09T13:44:00;101529.00;;;16.40
16956;BMP180;8594;52.052;8.354;2023-04-09T13:46:27;101531.00;;;16.90
16956;BMP180;8594;52.052;8.354;2023-04-09T13:48:54;101530.00;;;16.80
16956;BMP180;8594;52.052;8.354;2023-04-09T13:51:21;101529.00;;;16.20
16956;BMP180;8594;52.052;8.354;2023-04-09T13:53:48;101527.00;;;16.30
16956;BMP180;8594;52.052;8.354;2023-04-09T13:56:15;101523.00;;;16.40
16956;BMP180;8594;52.052;8.354;2023-04-09T13:58:42;101522.00;;;16.60
16956;BMP180;8594;52.052;8.354;2023-04-09T14:01:11;101524.00;;;16.50
16956;BMP180;8594;52.052;8.354;2023-04-09T14:03:39;101516.00;;;16.50
16956;BMP180;8594;52.052;8.354;2023-04-09T14:06:07;101520.00;;;16.70
16956;BMP180;8594;52.052;8.354;2023-04-09T14:08:35;101523.00;;;16.50
16956;BMP180;8594;52.052;8.354;2023-04-09T14:11:02;101514.00;;;16.90
16956;BMP180;8594;52.052;8.354;2023-04-09T14:13:29;101509.00;;;16.70
16956;BMP180;8594;52.052;8.354;2023-04-09T14:15:56;101503.00;;;16.50
16956;BMP180;8594;52.052;8.354;2023-04-09T14:18:24;101508.00;;;16.80
16956;BMP180;8594;52.052;8.354;2023-04-09T14:20:51;101504.00;;;17.00